createdAt,value
2023-01-11T00:00:46.643Z,6.07
2023-01-11T00:01:46.617Z,6.13
2023-01-11T00:02:46.593Z,6.11
2023-01-11T00:03:46.580Z,6.11
2023-01-11T00:04:46.649Z,6.11
2023-01-11T00:05:46.565Z,6.11
2023-01-11T00:06:46.620Z,6.09
2023-01-11T00:07:46.550Z,6.13
2023-01-11T00:08:46.528Z,6.11
2023-01-11T00:09:46.513Z,6.11
2023-01-11T00:10:46.506Z,6.10
2023-01-11T00:11:46.518Z,6.10
2023-01-11T00:12:46.483Z,6.13
2023-01-11T00:13:46.474Z,6.13
2023-01-11T00:14:46.483Z,6.16
2023-01-11T00:15:46.509Z,6.19
2023-01-11T00:16:46.452Z,6.19
2023-01-11T00:17:46.429Z,6.11
2023-01-11T00:18:46.424Z,6.13
2023-01-11T00:19:46.409Z,6.21
2023-01-11T00:20:46.398Z,6.21
2023-01-11T00:21:46.408Z,6.16
2023-01-11T00:22:46.376Z,6.16
2023-01-11T00:23:46.361Z,6.16
2023-01-11T00:24:46.352Z,6.09
2023-01-11T00:25:46.338Z,6.10
2023-01-11T00:26:46.366Z,6.03
2023-01-11T00:27:46.317Z,6.04
2023-01-11T00:28:46.313Z,6.04
2023-01-11T00:29:46.296Z,6.01
2023-01-11T00:30:46.314Z,5.98
2023-01-11T00:31:46.285Z,5.92
2023-01-11T00:32:46.273Z,5.98
2023-01-11T00:33:46.252Z,5.86
2023-01-11T00:34:46.250Z,5.85
2023-01-11T00:35:46.240Z,5.89
2023-01-11T00:36:46.235Z,5.89
2023-01-11T00:37:46.208Z,5.88
2023-01-11T00:38:46.230Z,5.93
2023-01-11T00:39:46.186Z,5.95
2023-01-11T00:40:46.175Z,5.98
2023-01-11T00:41:46.182Z,6.06
2023-01-11T00:42:46.164Z,6.03
2023-01-11T00:43:46.142Z,6.03
2023-01-11T00:44:46.143Z,6.00
2023-01-11T00:45:46.181Z,6.00
2023-01-11T00:46:46.150Z,6.03
2023-01-11T00:47:46.100Z,5.95
2023-01-11T00:48:46.093Z,6.07
2023-01-11T00:49:46.076Z,5.92
2023-01-11T00:50:46.073Z,5.93
2023-01-11T00:51:46.066Z,5.93
2023-01-11T00:52:46.045Z,6.06
2023-01-11T00:53:46.034Z,5.95
2023-01-11T00:54:46.021Z,5.91
2023-01-11T00:55:46.019Z,5.98
2023-01-11T00:56:46.022Z,6.01
2023-01-11T00:57:45.994Z,5.98
2023-01-11T00:58:45.982Z,5.92
2023-01-11T00:59:45.982Z,5.91
2023-01-11T01:00:46.001Z,5.96
2023-01-11T01:01:46.010Z,6.01
2023-01-11T01:02:46.001Z,6.03
2023-01-11T01:03:45.928Z,6.09
2023-01-11T01:04:46.018Z,6.09
2023-01-11T01:05:45.959Z,6.10
2023-01-11T01:06:45.979Z,6.03
2023-01-11T01:07:45.926Z,6.01
2023-01-11T01:08:45.896Z,6.10
2023-01-11T01:09:45.890Z,6.11
2023-01-11T01:10:45.852Z,6.01
2023-01-11T01:11:45.890Z,6.09
2023-01-11T01:12:45.848Z,6.11
2023-01-11T01:13:45.837Z,5.98
2023-01-11T01:14:45.805Z,6.04
2023-01-11T01:15:45.892Z,6.03
2023-01-11T01:16:45.828Z,5.95
2023-01-11T01:17:45.799Z,5.95
2023-01-11T01:18:45.837Z,5.91
2023-01-11T01:19:45.754Z,5.95
2023-01-11T01:20:45.744Z,5.93
2023-01-11T01:21:45.739Z,6.00
2023-01-11T01:22:45.717Z,6.03
2023-01-11T01:23:45.709Z,5.95
2023-01-11T01:24:45.698Z,5.93
2023-01-11T01:25:45.687Z,5.92
2023-01-11T01:26:45.694Z,5.98
2023-01-11T01:27:45.684Z,5.95
2023-01-11T01:28:45.669Z,5.85
2023-01-11T01:29:45.648Z,5.85
2023-01-11T01:30:45.647Z,5.78
2023-01-11T01:31:45.671Z,5.93
2023-01-11T01:32:45.611Z,5.95
2023-01-11T01:33:45.600Z,5.98
2023-01-11T01:34:45.608Z,5.83
2023-01-11T01:35:45.584Z,5.85
2023-01-11T01:36:45.590Z,5.88
2023-01-11T01:37:45.577Z,5.85
2023-01-11T01:38:45.614Z,5.81
2023-01-11T01:39:45.549Z,5.77
2023-01-11T01:40:45.534Z,5.82
2023-01-11T01:41:45.529Z,5.74
2023-01-11T01:42:45.508Z,5.78
2023-01-11T01:43:47.475Z,5.81
2023-01-11T01:44:45.485Z,5.83
2023-01-11T01:45:45.476Z,5.85
2023-01-11T01:46:45.478Z,5.82
2023-01-11T01:47:45.464Z,5.81
2023-01-11T01:48:45.436Z,5.89
2023-01-11T01:49:45.431Z,5.89
2023-01-11T01:50:45.436Z,5.98
2023-01-11T01:51:45.429Z,5.91
2023-01-11T01:52:45.396Z,5.93
2023-01-11T01:53:45.388Z,5.95
2023-01-11T01:54:45.375Z,5.86
2023-01-11T01:55:45.369Z,6.00
2023-01-11T01:56:45.398Z,5.91
2023-01-11T01:57:45.351Z,5.91
2023-01-11T01:58:45.329Z,5.88
2023-01-11T01:59:45.327Z,5.89
2023-01-11T02:00:45.308Z,5.96
2023-01-11T02:01:45.413Z,5.93
2023-01-11T02:02:45.413Z,5.93
2023-01-11T02:03:45.285Z,6.06
2023-01-11T02:04:45.268Z,6.01
2023-01-11T02:05:45.252Z,6.09
2023-01-11T02:06:45.296Z,6.06
2023-01-11T02:07:45.237Z,6.14
2023-01-11T02:08:45.237Z,6.18
2023-01-11T02:09:45.228Z,6.11
2023-01-11T02:10:45.204Z,6.09
2023-01-11T02:11:45.236Z,6.10
2023-01-11T02:12:45.188Z,6.18
2023-01-11T02:13:45.176Z,6.16
2023-01-11T02:14:45.163Z,6.16
2023-01-11T02:15:45.185Z,6.19
2023-01-11T02:16:45.143Z,6.30
2023-01-11T02:17:45.127Z,6.25
2023-01-11T02:18:45.111Z,6.29
2023-01-11T02:19:45.103Z,6.35
2023-01-11T02:20:45.098Z,6.35
2023-01-11T02:21:45.095Z,6.35
2023-01-11T02:22:45.095Z,6.28
2023-01-11T02:23:45.088Z,6.35
2023-01-11T02:24:45.045Z,6.29
2023-01-11T02:25:45.043Z,6.33
2023-01-11T02:26:45.031Z,6.29
2023-01-11T02:27:45.016Z,6.33
2023-01-11T02:28:45.014Z,6.36
2023-01-11T02:29:45.008Z,6.32
2023-01-11T02:30:44.979Z,6.40
2023-01-11T02:31:44.974Z,6.41
2023-01-11T02:32:44.966Z,6.40
2023-01-11T02:33:44.956Z,6.40
2023-01-11T02:34:44.938Z,6.44
2023-01-11T02:35:44.926Z,6.41
2023-01-11T02:36:44.918Z,6.53
2023-01-11T02:37:44.943Z,6.51
2023-01-11T02:38:44.914Z,6.41
2023-01-11T02:39:44.890Z,6.50
2023-01-11T02:40:44.879Z,6.35
2023-01-11T02:41:44.863Z,6.48
2023-01-11T02:42:44.859Z,6.53
2023-01-11T02:43:44.838Z,6.53
2023-01-11T02:44:44.862Z,6.48
2023-01-11T02:45:44.815Z,6.59
2023-01-11T02:46:44.902Z,6.56
2023-01-11T02:47:44.805Z,6.54
2023-01-11T02:48:44.782Z,6.56
2023-01-11T02:49:44.775Z,6.56
2023-01-11T02:50:44.760Z,6.48
2023-01-11T02:51:44.759Z,6.62
2023-01-11T02:52:44.759Z,6.59
2023-01-11T02:53:44.773Z,6.54
2023-01-11T02:54:44.816Z,6.63
2023-01-11T02:55:44.730Z,6.65
2023-01-11T02:56:44.696Z,6.59
2023-01-11T02:57:44.704Z,6.63
2023-01-11T02:58:44.679Z,6.71
2023-01-11T02:59:44.666Z,6.73
2023-01-11T03:00:44.650Z,6.71
2023-01-11T03:01:44.706Z,6.69
2023-01-11T03:02:44.720Z,6.77
2023-01-11T03:03:44.623Z,6.77
2023-01-11T03:04:44.627Z,6.72
2023-01-11T03:05:44.603Z,6.71
2023-01-11T03:06:44.609Z,6.72
2023-01-11T03:07:44.590Z,6.61
2023-01-11T03:08:44.596Z,6.66
2023-01-11T03:09:44.558Z,6.76
2023-01-11T03:10:44.574Z,6.76
2023-01-11T03:11:44.533Z,6.71
2023-01-11T03:12:44.532Z,6.71
2023-01-11T03:13:44.509Z,6.65
2023-01-11T03:14:44.548Z,6.68
2023-01-11T03:15:44.591Z,6.68
2023-01-11T03:16:44.480Z,6.71
2023-01-11T03:17:44.495Z,6.79
2023-01-11T03:18:44.454Z,6.77
2023-01-11T03:19:44.447Z,6.76
2023-01-11T03:20:44.433Z,6.62
2023-01-11T03:21:44.441Z,6.61
2023-01-11T03:22:44.424Z,6.66
2023-01-11T03:23:44.404Z,6.66
2023-01-11T03:24:44.428Z,6.61
2023-01-11T03:25:44.380Z,6.68
2023-01-11T03:26:44.386Z,6.69
2023-01-11T03:27:44.372Z,6.66
2023-01-11T03:28:44.360Z,6.71
2023-01-11T03:29:44.340Z,6.68
2023-01-11T03:30:44.328Z,6.69
2023-01-11T03:31:44.360Z,6.73
2023-01-11T03:32:44.314Z,6.73
2023-01-11T03:33:44.312Z,6.69
2023-01-11T03:34:44.345Z,6.83
2023-01-11T03:35:44.272Z,6.68
2023-01-11T03:36:44.260Z,6.73
2023-01-11T03:37:44.279Z,6.80
2023-01-11T03:38:44.260Z,6.71
2023-01-11T03:39:44.234Z,6.65
2023-01-11T03:40:52.211Z,6.81
2023-01-11T03:41:44.207Z,6.79
2023-01-11T03:42:44.225Z,6.73
2023-01-11T03:43:44.194Z,6.77
2023-01-11T03:44:44.169Z,6.80
2023-01-11T03:45:44.172Z,6.79
2023-01-11T03:46:44.180Z,6.77
2023-01-11T03:47:44.151Z,6.80
2023-01-11T03:48:44.131Z,6.76
2023-01-11T03:49:44.123Z,6.79
2023-01-11T03:50:44.104Z,6.80
2023-01-11T03:51:44.095Z,6.69
2023-01-11T03:52:44.108Z,6.77
2023-01-11T03:53:44.075Z,6.79
2023-01-11T03:54:44.064Z,6.81
2023-01-11T03:55:44.051Z,6.77
2023-01-11T03:56:44.043Z,6.76
2023-01-11T03:57:44.047Z,6.83
2023-01-11T03:58:44.051Z,6.80
2023-01-11T03:59:44.007Z,6.89
2023-01-11T04:00:44.041Z,6.91
2023-01-11T04:01:44.001Z,6.86
2023-01-11T04:02:43.992Z,6.83
2023-01-11T04:03:43.974Z,6.86
2023-01-11T04:04:43.971Z,6.83
2023-01-11T04:05:43.950Z,6.86
2023-01-11T04:06:44.009Z,6.86
2023-01-11T04:07:43.939Z,6.81
2023-01-11T04:08:43.912Z,6.87
2023-01-11T04:09:43.905Z,6.81
2023-01-11T04:10:43.912Z,6.79
2023-01-11T04:11:43.881Z,6.95
2023-01-11T04:12:43.881Z,6.87
2023-01-11T04:13:43.857Z,6.89
2023-01-11T04:14:43.870Z,6.84
2023-01-11T04:15:43.837Z,6.87
2023-01-11T04:16:43.824Z,6.87
2023-01-11T04:17:43.850Z,6.91
2023-01-11T04:18:43.812Z,6.86
2023-01-11T04:19:43.793Z,6.87
2023-01-11T04:20:43.782Z,6.87
2023-01-11T04:21:43.787Z,6.91
2023-01-11T04:22:43.790Z,6.94
2023-01-11T04:23:43.751Z,6.84
2023-01-11T04:24:43.739Z,6.87
2023-01-11T04:25:43.731Z,6.77
2023-01-11T04:26:43.727Z,6.87
2023-01-11T04:27:43.733Z,6.89
2023-01-11T04:28:43.715Z,6.95
2023-01-11T04:29:43.711Z,6.89
2023-01-11T04:30:43.701Z,6.89
2023-01-11T04:31:43.761Z,6.91
2023-01-11T04:32:43.677Z,6.80
2023-01-11T04:33:43.642Z,6.77
2023-01-11T04:34:43.629Z,6.79
2023-01-11T04:35:43.619Z,6.79
2023-01-11T04:36:43.612Z,6.77
2023-01-11T04:37:43.609Z,6.86
2023-01-11T04:38:43.587Z,6.89
2023-01-11T04:39:43.578Z,6.76
2023-01-11T04:40:43.566Z,6.80
2023-01-11T04:41:43.558Z,6.72
2023-01-11T04:42:43.555Z,6.77
2023-01-11T04:43:43.537Z,6.73
2023-01-11T04:44:43.528Z,6.79
2023-01-11T04:45:43.529Z,6.79
2023-01-11T04:46:43.519Z,6.80
2023-01-11T04:47:43.517Z,6.83
2023-01-11T04:48:43.480Z,6.86
2023-01-11T04:49:43.470Z,6.81
2023-01-11T04:50:43.522Z,6.77
2023-01-11T04:51:43.451Z,6.77
2023-01-11T04:52:43.448Z,6.76
2023-01-11T04:53:43.426Z,6.72
2023-01-11T04:54:43.417Z,6.84
2023-01-11T04:55:43.405Z,6.83
2023-01-11T04:56:43.392Z,6.77
2023-01-11T04:57:43.396Z,6.84
2023-01-11T04:58:43.371Z,6.94
2023-01-11T04:59:43.365Z,6.83
2023-01-11T05:00:43.399Z,6.79
2023-01-11T05:01:43.341Z,6.86
2023-01-11T05:02:43.467Z,6.83
2023-01-11T05:03:43.370Z,6.91
2023-01-11T05:04:43.315Z,6.79
2023-01-11T05:05:43.297Z,6.84
2023-01-11T05:06:43.304Z,6.83
2023-01-11T05:07:43.290Z,6.87
2023-01-11T05:08:43.262Z,6.86
2023-01-11T05:09:43.262Z,6.86
2023-01-11T05:10:43.243Z,6.83
2023-01-11T05:11:43.252Z,6.83
2023-01-11T05:12:43.234Z,6.80
2023-01-11T05:13:43.220Z,6.80
2023-01-11T05:14:43.225Z,6.84
2023-01-11T05:15:43.188Z,6.79
2023-01-11T05:16:43.202Z,6.89
2023-01-11T05:17:43.180Z,6.84
2023-01-11T05:18:43.174Z,6.80
2023-01-11T05:19:43.144Z,6.81
2023-01-11T05:20:43.132Z,6.83
2023-01-11T05:21:43.138Z,6.84
2023-01-11T05:22:43.123Z,6.83
2023-01-11T05:23:43.102Z,6.81
2023-01-11T05:24:43.090Z,6.87
2023-01-11T05:25:43.078Z,6.84
2023-01-11T05:26:43.073Z,6.90
2023-01-11T05:27:43.069Z,6.81
2023-01-11T05:28:43.049Z,6.83
2023-01-11T05:29:43.035Z,6.80
2023-01-11T05:30:43.026Z,6.84
2023-01-11T05:31:43.095Z,6.83
2023-01-11T05:32:43.019Z,6.83
2023-01-11T05:33:42.991Z,6.80
2023-01-11T05:34:43.003Z,6.79
2023-01-11T05:35:42.986Z,6.73
2023-01-11T05:36:42.960Z,6.87
2023-01-11T05:37:42.966Z,6.89
2023-01-11T05:38:42.956Z,6.84
2023-01-11T05:39:42.927Z,6.89
2023-01-11T05:40:42.920Z,6.91
2023-01-11T05:41:42.919Z,6.95
2023-01-11T05:42:42.908Z,6.90
2023-01-11T05:43:42.885Z,6.98
2023-01-11T05:44:42.875Z,6.97
2023-01-11T05:45:42.874Z,6.97
2023-01-11T05:46:42.852Z,7.04
2023-01-11T05:47:42.853Z,6.98
2023-01-11T05:48:42.834Z,6.91
2023-01-11T05:49:42.819Z,6.97
2023-01-11T05:50:42.832Z,6.97
2023-01-11T05:51:42.837Z,6.94
2023-01-11T05:52:42.801Z,6.89
2023-01-11T05:53:42.788Z,6.89
2023-01-11T05:54:42.763Z,6.86
2023-01-11T05:55:42.753Z,6.94
2023-01-11T05:56:42.743Z,6.86
2023-01-11T05:57:42.745Z,6.95
2023-01-11T05:58:42.734Z,6.90
2023-01-11T05:59:42.711Z,6.98
2023-01-11T06:00:42.701Z,6.91
2023-01-11T06:01:42.691Z,6.87
2023-01-11T06:02:42.840Z,6.90
2023-01-11T06:03:42.665Z,6.91
2023-01-11T06:04:42.682Z,6.94
2023-01-11T06:05:42.661Z,6.94
2023-01-11T06:06:42.774Z,6.95
2023-01-11T06:07:42.627Z,6.90
2023-01-11T06:08:42.626Z,6.91
2023-01-11T06:09:42.603Z,6.95
2023-01-11T06:10:42.594Z,7.02
2023-01-11T06:11:42.584Z,7.05
2023-01-11T06:12:42.577Z,7.04
2023-01-11T06:13:42.571Z,7.04
2023-01-11T06:14:42.552Z,7.05
2023-01-11T06:15:42.545Z,7.01
2023-01-11T06:16:42.574Z,6.94
2023-01-11T06:17:42.517Z,6.98
2023-01-11T06:18:42.525Z,6.91
2023-01-11T06:19:42.496Z,6.94
2023-01-11T06:20:42.485Z,6.97
2023-01-11T06:21:42.478Z,6.97
2023-01-11T06:22:42.482Z,6.97
2023-01-11T06:23:42.464Z,7.04
2023-01-11T06:24:42.453Z,7.12
2023-01-11T06:25:44.044Z,7.05
2023-01-11T06:26:42.421Z,7.04
2023-01-11T06:27:42.408Z,7.01
2023-01-11T06:28:42.408Z,7.05
2023-01-11T06:29:42.387Z,7.09
2023-01-11T06:30:42.454Z,7.07
2023-01-11T06:31:42.364Z,6.98
2023-01-11T06:32:42.366Z,7.12
2023-01-11T06:33:42.354Z,7.05
2023-01-11T06:34:42.335Z,7.09
2023-01-11T06:35:42.333Z,7.12
2023-01-11T06:36:42.335Z,7.09
2023-01-11T06:37:42.307Z,7.13
2023-01-11T06:38:42.354Z,7.09
2023-01-11T06:39:42.280Z,7.15
2023-01-11T06:40:42.276Z,7.16
2023-01-11T06:41:42.257Z,7.22
2023-01-11T06:42:42.251Z,7.17
2023-01-11T06:43:42.566Z,7.26
2023-01-11T06:44:42.226Z,7.08
2023-01-11T06:45:42.213Z,7.19
2023-01-11T06:46:42.292Z,7.17
2023-01-11T06:47:42.191Z,7.22
2023-01-11T06:48:42.194Z,7.23
2023-01-11T06:49:42.170Z,7.08
2023-01-11T06:50:42.161Z,7.07
2023-01-11T06:51:42.152Z,7.09
2023-01-11T06:52:42.140Z,7.16
2023-01-11T06:53:42.139Z,7.16
2023-01-11T06:54:42.147Z,7.12
2023-01-11T06:55:42.109Z,7.09
2023-01-11T06:56:42.099Z,7.09
2023-01-11T06:57:42.127Z,7.07
2023-01-11T06:58:42.135Z,7.17
2023-01-11T06:59:42.069Z,7.09
2023-01-11T07:00:42.054Z,7.20
2023-01-11T07:01:42.115Z,7.12
2023-01-11T07:02:42.031Z,7.07
2023-01-11T07:03:42.036Z,7.16
2023-01-11T07:04:42.082Z,7.16
2023-01-11T07:05:41.999Z,7.19
2023-01-11T07:06:41.989Z,7.19
2023-01-11T07:07:41.975Z,7.17
2023-01-11T07:08:41.978Z,7.20
2023-01-11T07:09:41.953Z,7.19
2023-01-11T07:10:41.965Z,7.29
2023-01-11T07:11:41.935Z,7.29
2023-01-11T07:12:41.923Z,7.29
2023-01-11T07:13:41.922Z,7.27
2023-01-11T07:14:41.903Z,7.27
2023-01-11T07:15:41.897Z,7.32
2023-01-11T07:16:41.882Z,7.37
2023-01-11T07:17:41.876Z,7.29
2023-01-11T07:18:41.881Z,7.40
2023-01-11T07:19:41.847Z,7.26
2023-01-11T07:20:41.843Z,7.29
2023-01-11T07:21:41.828Z,7.37
2023-01-11T07:22:41.819Z,7.27
2023-01-11T07:23:41.815Z,7.32
2023-01-11T07:24:41.841Z,7.35
2023-01-11T07:25:41.789Z,7.27
2023-01-11T07:26:41.793Z,7.31
2023-01-11T07:27:41.763Z,7.40
2023-01-11T07:28:41.763Z,7.27
2023-01-11T07:29:41.745Z,7.31
2023-01-11T07:30:56.838Z,7.29
2023-01-11T07:31:42.784Z,7.37
2023-01-11T07:32:41.714Z,7.34
2023-01-11T07:33:41.722Z,7.31
2023-01-11T07:34:41.697Z,7.37
2023-01-11T07:35:41.674Z,7.27
2023-01-11T07:36:41.687Z,7.29
2023-01-11T07:37:41.680Z,7.37
2023-01-11T07:38:41.655Z,7.34
2023-01-11T07:39:43.869Z,7.32
2023-01-11T07:40:41.621Z,7.27
2023-01-11T07:41:41.610Z,7.20
2023-01-11T07:42:41.620Z,7.20
2023-01-11T07:43:41.600Z,7.22
2023-01-11T07:44:41.582Z,7.22
2023-01-11T07:45:45.740Z,7.24
2023-01-11T07:46:42.678Z,7.22
2023-01-11T07:47:41.576Z,7.20
2023-01-11T07:48:41.549Z,7.29
2023-01-11T07:49:41.532Z,7.20
2023-01-11T07:50:44.200Z,7.35
2023-01-11T07:51:41.505Z,7.31
2023-01-11T07:52:41.501Z,7.29
2023-01-11T07:53:41.494Z,7.37
2023-01-11T07:54:41.472Z,7.38
2023-01-11T07:55:41.477Z,7.37
2023-01-11T07:56:41.457Z,7.34
2023-01-11T07:57:41.439Z,7.31
2023-01-11T07:58:41.457Z,7.32
2023-01-11T07:59:41.416Z,7.34
2023-01-11T08:00:41.409Z,7.45
2023-01-11T08:01:41.401Z,7.49
2023-01-11T08:02:41.577Z,7.44
2023-01-11T08:03:41.500Z,7.52
2023-01-11T08:04:41.370Z,7.44
2023-01-11T08:05:41.355Z,7.44
2023-01-11T08:06:41.344Z,7.49
2023-01-11T08:07:41.334Z,7.44
2023-01-11T08:08:41.342Z,7.50
2023-01-11T08:09:41.312Z,7.40
2023-01-11T08:10:42.221Z,7.55
2023-01-11T08:11:41.292Z,7.55
2023-01-11T08:12:41.303Z,7.53
2023-01-11T08:13:41.280Z,7.59
2023-01-11T08:14:41.276Z,7.58
2023-01-11T08:15:41.297Z,7.55
2023-01-11T08:16:41.235Z,7.62
2023-01-11T08:17:41.232Z,7.62
2023-01-11T08:18:41.233Z,7.67
2023-01-11T08:19:41.769Z,7.74
2023-01-11T08:20:41.253Z,7.78
2023-01-11T08:21:41.181Z,7.72
2023-01-11T08:22:41.176Z,7.74
2023-01-11T08:23:41.169Z,7.69
2023-01-11T08:24:41.150Z,7.69
2023-01-11T08:25:41.142Z,7.71
2023-01-11T08:26:41.145Z,7.69
2023-01-11T08:27:41.123Z,7.78
2023-01-11T08:28:41.117Z,7.74
2023-01-11T08:29:41.096Z,7.77
2023-01-11T08:30:41.123Z,7.79
2023-01-11T08:31:41.079Z,7.69
2023-01-11T08:32:41.064Z,7.74
2023-01-11T08:33:41.067Z,7.74
2023-01-11T08:34:41.058Z,7.85
2023-01-11T08:35:41.031Z,7.78
2023-01-11T08:36:41.022Z,7.81
2023-01-11T08:37:41.008Z,7.84
2023-01-11T08:38:41.014Z,7.85
2023-01-11T08:39:40.986Z,7.81
2023-01-11T08:40:40.977Z,7.85
2023-01-11T08:41:40.978Z,7.81
2023-01-11T08:42:40.954Z,7.82
2023-01-11T08:43:40.954Z,7.94
2023-01-11T08:44:40.943Z,7.87
2023-01-11T08:45:40.924Z,7.87
2023-01-11T08:46:41.037Z,7.93
2023-01-11T08:47:40.901Z,7.92
2023-01-11T08:48:40.920Z,7.84
2023-01-11T08:49:40.886Z,7.90
2023-01-11T08:50:40.871Z,7.89
2023-01-11T08:51:40.857Z,7.90
2023-01-11T08:52:40.848Z,7.96
2023-01-11T08:53:40.845Z,7.99
2023-01-11T08:54:40.825Z,7.96
2023-01-11T08:55:40.812Z,7.92
2023-01-11T08:56:40.808Z,8.00
2023-01-11T08:57:40.791Z,7.99
2023-01-11T08:58:40.797Z,8.03
2023-01-11T08:59:40.813Z,7.99
2023-01-11T09:00:40.761Z,8.08
2023-01-11T09:01:40.933Z,8.03
2023-01-11T09:02:40.871Z,8.10
2023-01-11T09:03:40.734Z,8.17
2023-01-11T09:04:40.731Z,8.15
2023-01-11T09:05:40.709Z,8.10
2023-01-11T09:06:40.694Z,8.12
2023-01-11T09:07:40.731Z,8.07
2023-01-11T09:08:40.704Z,8.04
2023-01-11T09:09:40.671Z,8.03
2023-01-11T09:10:40.650Z,8.03
2023-01-11T09:11:40.639Z,8.10
2023-01-11T09:12:40.625Z,8.15
2023-01-11T09:13:40.615Z,8.12
2023-01-11T09:14:40.617Z,8.21
2023-01-11T09:15:40.619Z,8.18
2023-01-11T09:16:40.582Z,8.20
2023-01-11T09:17:40.573Z,8.25
2023-01-11T09:18:40.617Z,8.17
2023-01-11T09:19:40.560Z,8.22
2023-01-11T09:20:40.539Z,8.25
2023-01-11T09:21:40.524Z,8.26
2023-01-11T09:22:40.516Z,8.22
2023-01-11T09:23:40.502Z,8.26
2023-01-11T09:24:40.506Z,8.22
2023-01-11T09:25:40.484Z,8.26
2023-01-11T09:26:40.484Z,8.29
2023-01-11T09:27:40.459Z,8.18
2023-01-11T09:28:40.449Z,8.33
2023-01-11T09:29:40.515Z,8.32
2023-01-11T09:30:40.428Z,8.33
2023-01-11T09:31:40.510Z,8.25
2023-01-11T09:32:40.408Z,8.36
2023-01-11T09:33:40.394Z,8.37
2023-01-11T09:34:40.411Z,8.37
2023-01-11T09:35:40.391Z,8.37
2023-01-11T09:36:40.383Z,8.37
2023-01-11T09:37:40.349Z,8.36
2023-01-11T09:38:40.343Z,8.37
2023-01-11T09:39:40.387Z,8.42
2023-01-11T09:40:47.395Z,8.42
2023-01-11T09:41:40.307Z,8.39
2023-01-11T09:42:40.307Z,8.36
2023-01-11T09:43:40.284Z,8.36
2023-01-11T09:44:40.278Z,8.37
2023-01-11T09:45:40.354Z,8.36
2023-01-11T09:46:40.299Z,8.35
2023-01-11T09:47:40.253Z,8.37
2023-01-11T09:48:40.232Z,8.40
2023-01-11T09:49:40.221Z,8.37
2023-01-11T09:50:40.232Z,8.35
2023-01-11T09:51:40.209Z,8.36
2023-01-11T09:52:40.192Z,8.35
2023-01-11T09:53:40.214Z,8.30
2023-01-11T09:54:40.167Z,8.28
2023-01-11T09:55:40.154Z,8.26
2023-01-11T09:56:40.151Z,8.18
2023-01-11T09:57:40.153Z,8.21
2023-01-11T09:58:40.139Z,8.25
2023-01-11T09:59:40.107Z,8.22
2023-01-11T10:00:40.175Z,8.22
2023-01-11T10:01:40.104Z,8.20
2023-01-11T10:02:40.072Z,8.20
2023-01-11T10:03:40.070Z,8.22
2023-01-11T10:04:40.101Z,8.22
2023-01-11T10:05:40.043Z,8.25
2023-01-11T10:06:40.068Z,8.25
2023-01-11T10:07:40.036Z,8.17
2023-01-11T10:18:25.374Z,8.20
2023-01-11T10:18:31.765Z,8.20
2023-01-11T10:18:33.476Z,8.18
2023-01-11T10:18:37.852Z,8.28
2023-01-11T10:18:53.793Z,8.18
2023-01-11T10:19:41.916Z,8.25
2023-01-11T10:20:40.069Z,8.18
2023-01-11T10:21:39.881Z,8.17
2023-01-11T10:22:39.881Z,8.18
2023-01-11T10:23:39.850Z,8.17
2023-01-11T10:24:39.839Z,8.20
2023-01-11T10:25:39.821Z,8.14
2023-01-11T10:26:39.945Z,8.20
2023-01-11T10:27:39.831Z,8.15
2023-01-11T10:28:39.788Z,8.22
2023-01-11T10:29:39.780Z,8.28
2023-01-11T10:30:41.720Z,8.25
2023-01-11T10:31:39.869Z,8.21
2023-01-11T10:32:39.749Z,8.30
2023-01-11T10:33:39.734Z,8.30
2023-01-11T10:34:39.731Z,8.33
2023-01-11T10:35:39.715Z,8.26
2023-01-11T10:36:39.714Z,8.33
2023-01-11T10:37:39.690Z,8.33
2023-01-11T10:38:39.722Z,8.33
2023-01-11T10:39:39.680Z,8.33
2023-01-11T10:40:39.671Z,8.36
2023-01-11T10:41:41.203Z,8.37
2023-01-11T10:42:39.642Z,8.30
2023-01-11T10:43:39.627Z,8.39
2023-01-11T10:44:39.617Z,8.29
2023-01-11T10:45:39.670Z,8.37
2023-01-11T10:46:39.843Z,8.39
2023-01-11T10:47:39.584Z,8.33
2023-01-11T10:48:39.568Z,8.32
2023-01-11T10:49:39.560Z,8.37
2023-01-11T10:50:39.547Z,8.36
2023-01-11T10:51:39.546Z,8.37
2023-01-11T10:52:39.523Z,8.33
2023-01-11T10:53:39.517Z,8.25
2023-01-11T10:54:39.539Z,8.35
2023-01-11T10:55:39.500Z,8.39
2023-01-11T10:56:42.852Z,8.37
2023-01-11T10:58:00.618Z,8.33
2023-01-11T10:58:40.459Z,8.33
2023-01-11T10:59:39.448Z,8.37
2023-01-11T11:00:39.493Z,8.48
2023-01-11T11:01:39.499Z,8.33
2023-01-11T11:02:39.462Z,8.48
2023-01-11T11:03:39.410Z,8.42
2023-01-11T11:04:39.396Z,8.42
2023-01-11T11:05:39.382Z,8.42
2023-01-11T11:06:39.388Z,8.48
2023-01-11T11:07:39.371Z,8.40
2023-01-11T11:08:39.385Z,8.45
2023-01-11T11:09:39.337Z,8.50
2023-01-11T11:10:39.353Z,8.36
2023-01-11T11:11:39.332Z,8.32
2023-01-11T11:12:39.308Z,8.35
2023-01-11T11:13:39.297Z,8.40
2023-01-11T11:14:39.290Z,8.30
2023-01-11T11:15:39.272Z,8.36
2023-01-11T11:16:39.395Z,8.35
2023-01-11T11:17:39.253Z,8.33
2023-01-11T11:18:39.242Z,8.35
2023-01-11T11:19:40.672Z,8.32
2023-01-11T11:20:39.223Z,8.37
2023-01-11T11:21:39.220Z,8.36
2023-01-11T11:22:39.193Z,8.40
2023-01-11T11:23:39.188Z,8.32
2023-01-11T11:24:39.171Z,8.42
2023-01-11T11:25:39.245Z,8.33
2023-01-11T11:26:39.215Z,8.39
2023-01-11T11:27:39.150Z,8.40
2023-01-11T11:28:39.145Z,8.37
2023-01-11T11:29:39.120Z,8.32
2023-01-11T11:30:39.152Z,8.25
2023-01-11T11:31:40.686Z,8.35
2023-01-11T11:32:39.085Z,8.40
2023-01-11T11:33:39.111Z,8.36
2023-01-11T11:34:39.065Z,8.40
2023-01-11T11:35:39.056Z,8.36
2023-01-11T11:36:39.070Z,8.37
2023-01-11T11:37:39.032Z,8.40
2023-01-11T11:38:39.028Z,8.32
2023-01-11T11:39:39.043Z,8.40
2023-01-11T11:40:39.010Z,8.42
2023-01-11T11:41:39.001Z,8.35
2023-01-11T11:42:39.057Z,8.36
2023-01-11T11:43:38.976Z,8.33
2023-01-11T11:44:38.956Z,8.35
2023-01-11T11:45:39.007Z,8.42
2023-01-11T11:46:38.939Z,8.39
2023-01-11T11:47:38.938Z,8.35
2023-01-11T11:48:38.906Z,8.40
2023-01-11T11:49:38.894Z,8.40
2023-01-11T11:50:46.142Z,8.37
2023-01-11T11:51:39.903Z,8.39
2023-01-11T11:52:38.873Z,8.30
2023-01-11T11:53:38.850Z,8.47
2023-01-11T11:54:38.837Z,8.51
2023-01-11T11:55:38.829Z,8.47
2023-01-11T11:56:38.819Z,8.47
2023-01-11T11:57:38.820Z,8.51
2023-01-11T11:58:38.807Z,8.42
2023-01-11T11:59:38.783Z,8.51
2023-01-11T12:00:38.771Z,8.50
2023-01-11T12:01:38.767Z,8.50
2023-01-11T12:02:38.779Z,8.51
2023-01-11T12:03:38.742Z,8.45
2023-01-11T12:04:38.813Z,8.44
2023-01-11T12:05:38.723Z,8.54
2023-01-11T12:06:38.708Z,8.48
2023-01-11T12:07:53.621Z,8.48
2023-01-11T12:08:39.685Z,8.50
2023-01-11T12:09:38.740Z,8.58
2023-01-11T12:10:38.664Z,8.53
2023-01-11T12:11:38.662Z,8.57
2023-01-11T12:12:38.653Z,8.62
2023-01-11T12:13:38.662Z,8.54
2023-01-11T12:14:38.645Z,8.60
2023-01-11T12:15:38.614Z,8.60
2023-01-11T12:16:38.645Z,8.60
2023-01-11T12:17:38.619Z,8.68
2023-01-11T12:18:38.579Z,8.73
2023-01-11T12:19:38.569Z,8.73
2023-01-11T12:20:38.565Z,8.72
2023-01-11T12:21:38.546Z,8.73
2023-01-11T12:22:38.548Z,8.72
2023-01-11T12:23:38.523Z,8.73
2023-01-11T12:24:38.518Z,8.79
2023-01-11T12:25:38.503Z,8.73
2023-01-11T12:26:38.683Z,8.73
2023-01-11T12:27:38.494Z,8.71
2023-01-11T12:28:38.485Z,8.73
2023-01-11T12:29:38.458Z,8.73
2023-01-11T12:30:38.526Z,8.75
2023-01-11T12:31:38.438Z,8.73
2023-01-11T12:32:38.432Z,8.81
2023-01-11T12:33:38.421Z,8.79
2023-01-11T12:34:38.405Z,8.71
2023-01-11T12:35:38.414Z,8.81
2023-01-11T12:36:38.387Z,8.75
2023-01-11T12:37:38.391Z,8.84
2023-01-11T12:38:38.366Z,8.81
2023-01-11T12:39:38.351Z,8.79
2023-01-11T12:40:38.348Z,8.81
2023-01-11T12:41:38.346Z,8.88
2023-01-11T12:42:38.361Z,8.87
2023-01-11T12:43:38.320Z,8.84
2023-01-11T12:44:38.302Z,8.87
2023-01-11T12:45:38.288Z,8.87
2023-01-11T12:46:38.291Z,8.87
2023-01-11T12:47:38.329Z,8.86
2023-01-11T12:48:38.249Z,8.88
2023-01-11T12:49:38.251Z,8.81
2023-01-11T12:51:38.222Z,8.83
2023-01-11T12:52:38.229Z,8.91
2023-01-11T12:53:38.223Z,8.93
2023-01-11T12:54:38.191Z,8.91
2023-01-11T12:55:38.188Z,8.96
2023-01-11T12:56:38.165Z,8.96
2023-01-11T12:57:38.171Z,8.93
2023-01-11T12:58:38.142Z,8.91
2023-01-11T12:59:38.138Z,8.93
2023-01-11T13:00:38.126Z,8.91
2023-01-11T13:01:38.188Z,8.96
2023-01-11T13:02:38.285Z,8.93
2023-01-11T13:03:38.108Z,8.97
2023-01-11T13:04:38.076Z,8.91
2023-01-11T13:05:38.067Z,8.88
2023-01-11T13:06:38.059Z,8.88
2023-01-11T13:07:38.058Z,8.93
2023-01-11T13:08:38.048Z,8.90
2023-01-11T13:09:38.044Z,8.91
2023-01-11T13:10:38.023Z,8.81
2023-01-11T13:11:38.008Z,8.86
2023-01-11T13:12:38.002Z,8.90
2023-01-11T13:13:37.979Z,8.88
2023-01-11T13:14:37.995Z,8.96
2023-01-11T13:15:37.958Z,8.86
2023-01-11T13:16:38.042Z,8.90
2023-01-11T13:17:37.953Z,8.90
2023-01-11T13:18:37.989Z,8.86
2023-01-11T13:19:37.920Z,8.91
2023-01-11T13:20:58.856Z,8.88
2023-01-11T13:21:38.904Z,8.87
2023-01-11T13:22:37.893Z,8.90
2023-01-11T13:23:37.873Z,8.96
2023-01-11T13:24:37.862Z,8.90
2023-01-11T13:25:37.853Z,8.88